createdAt,value
2022-08-26T00:01:56.366Z,23.52
2022-08-26T00:04:25.487Z,23.70
2022-08-26T00:06:53.715Z,22.73
2022-08-26T00:09:20.855Z,27.60
2022-08-26T00:11:48.497Z,20.10
2022-08-26T00:14:16.576Z,23.00
2022-08-26T00:16:48.252Z,17.95
2022-08-26T00:19:18.439Z,33.47
2022-08-26T00:21:46.556Z,29.98
2022-08-26T00:24:16.548Z,37.92
2022-08-26T00:26:44.757Z,31.48
2022-08-26T00:29:12.501Z,43.22
2022-08-26T00:31:40.787Z,23.60
2022-08-26T00:34:09.538Z,27.10
2022-08-26T00:36:39.772Z,55.53
2022-08-26T00:39:08.014Z,37.45
2022-08-26T00:41:37.537Z,49.03
2022-08-26T00:44:05.642Z,23.23
2022-08-26T00:46:37.230Z,43.38
2022-08-26T00:49:19.946Z,32.63
2022-08-26T00:51:52.432Z,39.28
2022-08-26T00:54:24.428Z,32.30
2022-08-26T00:57:02.175Z,30.45
2022-08-26T00:59:32.995Z,51.63
2022-08-26T01:02:02.912Z,35.17
2022-08-26T01:04:31.579Z,57.60
2022-08-26T01:06:59.067Z,22.55
2022-08-26T01:09:27.154Z,51.67
2022-08-26T01:11:57.710Z,54.55
2022-08-26T01:14:29.638Z,69.43
2022-08-26T01:16:56.615Z,39.90
2022-08-26T01:20:03.205Z,25.73
2022-08-26T01:22:42.005Z,49.97
2022-08-26T01:25:11.272Z,64.68
2022-08-26T01:27:38.614Z,56.28
2022-08-26T01:30:06.530Z,55.47
2022-08-26T01:32:34.121Z,83.45
2022-08-26T01:35:02.100Z,65.60
2022-08-26T01:37:35.117Z,92.05
2022-08-26T01:40:02.453Z,57.53
2022-08-26T01:42:30.043Z,63.78
2022-08-26T01:45:14.896Z,65.40
2022-08-26T01:47:43.175Z,81.78
2022-08-26T01:50:28.197Z,32.95
2022-08-26T01:53:00.197Z,44.80
2022-08-26T01:55:33.039Z,26.13
2022-08-26T01:58:05.301Z,54.08
2022-08-26T02:00:34.249Z,34.15
2022-08-26T02:03:17.850Z,51.67
2022-08-26T02:05:48.906Z,31.67
2022-08-26T02:08:24.919Z,36.05
2022-08-26T02:10:54.711Z,46.13
2022-08-26T02:13:25.376Z,30.15
2022-08-26T02:15:53.531Z,22.88
2022-08-26T02:18:20.765Z,22.52
2022-08-26T02:20:51.664Z,18.48
2022-08-26T02:23:18.903Z,24.17
2022-08-26T02:25:55.877Z,41.28
2022-08-26T02:28:23.071Z,25.33
2022-08-26T02:30:55.524Z,37.90
2022-08-26T02:33:22.776Z,26.50
2022-08-26T02:35:49.810Z,26.60
2022-08-26T02:38:17.815Z,50.75
2022-08-26T02:40:44.742Z,93.68
2022-08-26T02:43:12.678Z,22.38
2022-08-26T02:45:40.442Z,19.48
2022-08-26T02:48:15.218Z,39.90
2022-08-26T02:50:43.925Z,40.65
2022-08-26T02:53:12.293Z,25.70
2022-08-26T02:55:41.066Z,40.78
2022-08-26T02:58:09.626Z,44.17
2022-08-26T03:00:38.413Z,21.52
2022-08-26T03:03:05.780Z,24.45
2022-08-26T03:05:33.640Z,28.02
2022-08-26T03:08:01.887Z,27.63
2022-08-26T03:10:31.661Z,21.30
2022-08-26T03:13:00.671Z,18.77
2022-08-26T03:15:32.601Z,23.25
2022-08-26T03:17:59.916Z,18.77
2022-08-26T03:20:27.006Z,21.38
2022-08-26T03:22:56.122Z,20.38
2022-08-26T03:25:23.357Z,16.40
2022-08-26T03:27:51.045Z,19.33
2022-08-26T03:30:37.751Z,16.73
2022-08-26T03:33:05.069Z,20.10
2022-08-26T03:35:34.038Z,21.95
2022-08-26T03:38:02.018Z,17.40
2022-08-26T03:40:29.596Z,25.70
2022-08-26T03:42:56.550Z,17.38
2022-08-26T03:45:23.546Z,16.08
2022-08-26T03:47:51.779Z,15.73
2022-08-26T03:50:24.358Z,15.25
2022-08-26T03:52:53.026Z,18.02
2022-08-26T03:55:25.737Z,19.15
2022-08-26T03:57:54.320Z,16.33
2022-08-26T04:00:22.495Z,21.23
2022-08-26T04:02:53.181Z,19.13
2022-08-26T04:05:22.760Z,17.70
2022-08-26T04:07:49.971Z,17.85
2022-08-26T04:10:20.214Z,19.17
2022-08-26T04:12:47.749Z,20.08
2022-08-26T04:15:16.569Z,14.02
2022-08-26T04:17:45.319Z,15.25
2022-08-26T04:20:16.266Z,17.65
2022-08-26T04:22:43.899Z,16.77
2022-08-26T04:25:11.377Z,17.33
2022-08-26T04:27:38.493Z,17.83
2022-08-26T04:30:09.117Z,17.13
2022-08-26T04:32:37.084Z,16.30
2022-08-26T04:35:05.300Z,19.10
2022-08-26T04:37:33.734Z,20.95
2022-08-26T04:40:00.941Z,16.85
2022-08-26T04:42:29.401Z,19.50
2022-08-26T04:44:56.376Z,15.55
2022-08-26T04:47:23.658Z,11.98
2022-08-26T04:49:53.339Z,14.45
2022-08-26T04:52:20.470Z,11.63
2022-08-26T04:54:47.490Z,10.95
2022-08-26T04:57:15.059Z,13.85
2022-08-26T04:59:42.603Z,12.40
2022-08-26T05:02:09.552Z,12.75
2022-08-26T05:04:36.558Z,13.38
2022-08-26T05:07:04.475Z,13.25
2022-08-26T05:09:31.587Z,12.88
2022-08-26T05:11:58.505Z,10.45
2022-08-26T05:14:25.483Z,12.07
2022-08-26T05:16:52.740Z,13.55
2022-08-26T05:19:19.908Z,12.20
2022-08-26T05:21:49.360Z,11.10
2022-08-26T05:24:18.000Z,9.93
2022-08-26T05:26:45.586Z,11.23
2022-08-26T05:29:14.139Z,10.52
2022-08-26T05:31:41.654Z,16.52
2022-08-26T05:34:08.736Z,10.52
2022-08-26T05:36:36.237Z,13.55
2022-08-26T05:39:06.516Z,12.32
2022-08-26T05:41:38.403Z,14.80
2022-08-26T05:44:08.871Z,10.98
2022-08-26T05:46:36.886Z,10.25
2022-08-26T05:49:06.197Z,10.48
2022-08-26T05:51:41.512Z,11.25
2022-08-26T05:54:10.482Z,11.10
2022-08-26T05:56:38.666Z,10.10
2022-08-26T05:59:06.713Z,14.57
2022-08-26T06:01:43.627Z,14.50
2022-08-26T06:04:12.651Z,8.93
2022-08-26T06:06:43.277Z,9.25
2022-08-26T06:09:12.286Z,9.40
2022-08-26T06:11:40.357Z,11.30
2022-08-26T06:14:08.459Z,10.02
2022-08-26T06:16:41.308Z,8.13
2022-08-26T06:19:10.563Z,7.55
2022-08-26T06:21:40.359Z,8.13
2022-08-26T06:24:29.178Z,7.43
2022-08-26T06:27:01.786Z,8.27
2022-08-26T06:29:34.684Z,10.52
2022-08-26T06:32:04.926Z,8.18
2022-08-26T06:34:32.838Z,9.15
2022-08-26T06:37:06.637Z,7.53
2022-08-26T06:39:34.438Z,9.45
2022-08-26T06:42:03.274Z,10.18
2022-08-26T06:44:33.843Z,6.22
2022-08-26T06:47:01.068Z,11.77
2022-08-26T06:49:28.197Z,6.45
2022-08-26T06:51:58.715Z,9.70
2022-08-26T06:54:27.118Z,8.32
2022-08-26T06:56:56.143Z,10.18
2022-08-26T06:59:24.558Z,6.50
2022-08-26T07:01:52.489Z,7.47
2022-08-26T07:04:23.053Z,7.85
2022-08-26T07:06:52.970Z,7.97
2022-08-26T07:09:22.226Z,7.88
2022-08-26T07:11:49.599Z,5.72
2022-08-26T07:14:19.425Z,5.05
2022-08-26T07:16:52.410Z,9.13
2022-08-26T07:19:31.210Z,6.43
2022-08-26T07:22:04.810Z,5.82
2022-08-26T07:24:42.341Z,4.63
2022-08-26T07:27:15.231Z,6.05
2022-08-26T07:29:43.819Z,5.45
2022-08-26T07:32:14.148Z,6.45
2022-08-26T07:34:42.083Z,6.35
2022-08-26T07:37:09.849Z,9.30
2022-08-26T07:39:37.336Z,4.95
2022-08-26T07:42:07.538Z,4.45
2022-08-26T07:44:35.249Z,6.00
2022-08-26T07:47:02.338Z,5.53
2022-08-26T07:49:29.811Z,4.90
2022-08-26T07:51:57.254Z,5.45
2022-08-26T07:54:27.316Z,4.88
2022-08-26T07:56:55.936Z,5.07
2022-08-26T07:59:24.503Z,3.80
2022-08-26T08:01:52.300Z,6.30
2022-08-26T08:04:25.572Z,6.15
2022-08-26T08:06:54.340Z,3.47
2022-08-26T08:09:22.501Z,9.50
2022-08-26T08:11:51.379Z,5.13
2022-08-26T08:14:22.063Z,5.55
2022-08-26T08:16:53.321Z,8.15
2022-08-26T08:19:22.146Z,3.55
2022-08-26T08:21:49.900Z,6.80
2022-08-26T08:24:18.996Z,5.95
2022-08-26T08:26:46.386Z,4.88
2022-08-26T08:29:14.757Z,7.72
2022-08-26T08:31:58.502Z,8.27
2022-08-26T08:34:29.965Z,4.90
2022-08-26T08:36:57.589Z,7.47
2022-08-26T08:39:25.227Z,5.05
2022-08-26T08:42:09.579Z,6.20
2022-08-26T08:44:42.277Z,5.28
2022-08-26T08:47:20.754Z,5.95
2022-08-26T08:49:48.644Z,7.63
2022-08-26T08:52:37.781Z,6.65
2022-08-26T08:55:11.077Z,10.63
2022-08-26T08:58:08.047Z,6.40
2022-08-26T09:00:47.073Z,7.82
2022-08-26T09:03:52.121Z,12.95
2022-08-26T09:06:20.735Z,10.20
2022-08-26T09:08:50.852Z,6.47
2022-08-26T09:11:22.450Z,6.45
2022-08-26T09:13:54.054Z,9.38
2022-08-26T09:16:27.857Z,4.25
2022-08-26T09:19:23.525Z,7.32
2022-08-26T09:21:58.865Z,7.55
2022-08-26T09:24:28.585Z,4.47
2022-08-26T09:26:58.452Z,4.43
2022-08-26T09:29:29.693Z,5.70
2022-08-26T09:32:22.242Z,8.05
2022-08-26T09:34:59.474Z,9.15
2022-08-26T09:37:43.604Z,5.90
2022-08-26T09:40:27.021Z,5.38
2022-08-26T09:43:22.889Z,7.30
2022-08-26T09:46:10.243Z,5.00
2022-08-26T09:48:41.061Z,7.47
2022-08-26T09:51:35.733Z,7.30
2022-08-26T09:54:05.609Z,6.22
2022-08-26T09:56:39.178Z,5.63
2022-08-26T09:59:11.562Z,10.30
2022-08-26T10:01:43.971Z,5.70
2022-08-26T10:04:20.162Z,4.85
2022-08-26T10:06:59.251Z,5.20
2022-08-26T10:09:26.918Z,4.47
2022-08-26T10:11:59.130Z,7.32
2022-08-26T10:17:07.451Z,4.35
2022-08-26T10:19:57.813Z,6.35
2022-08-26T10:23:13.023Z,4.05
2022-08-26T10:26:08.603Z,6.38
2022-08-26T10:28:49.024Z,4.70
2022-08-26T10:31:28.786Z,11.32
2022-08-26T10:34:00.470Z,8.05
2022-08-26T10:37:15.206Z,5.55
2022-08-26T10:40:22.043Z,3.58
2022-08-26T10:43:19.163Z,4.88
2022-08-26T10:45:55.130Z,3.05
2022-08-26T10:48:35.374Z,5.32
2022-08-26T10:51:04.362Z,5.00
2022-08-26T10:53:32.882Z,3.92
2022-08-26T10:56:32.593Z,6.40
2022-08-26T10:59:12.326Z,7.38
2022-08-26T11:01:42.672Z,3.33
2022-08-26T11:04:09.893Z,9.25
2022-08-26T11:06:37.234Z,6.05
2022-08-26T11:09:07.209Z,4.97
2022-08-26T11:11:40.196Z,5.35
2022-08-26T11:14:10.131Z,5.40
2022-08-26T11:16:46.715Z,4.10
2022-08-26T11:20:00.875Z,4.60
2022-08-26T11:22:47.787Z,4.75
2022-08-26T11:25:26.452Z,7.18
2022-08-26T11:28:00.610Z,8.40
2022-08-26T11:30:40.570Z,3.83
2022-08-26T11:33:08.345Z,2.60
2022-08-26T11:35:37.447Z,8.25
2022-08-26T11:38:27.782Z,3.38
2022-08-26T11:41:10.886Z,6.65
2022-08-26T11:43:40.791Z,3.75
2022-08-26T11:46:11.242Z,2.35
2022-08-26T11:48:43.580Z,3.90
2022-08-26T11:51:21.015Z,5.93
2022-08-26T11:53:49.391Z,4.50
2022-08-26T11:56:24.763Z,12.15
2022-08-26T11:58:57.091Z,5.80
2022-08-26T12:01:31.817Z,5.30
2022-08-26T12:04:00.601Z,4.30
2022-08-26T12:06:38.866Z,3.05
2022-08-26T12:09:21.231Z,3.38
2022-08-26T12:11:50.935Z,7.32
2022-08-26T12:14:22.139Z,6.47
2022-08-26T12:16:49.521Z,4.97
2022-08-26T12:19:27.412Z,3.05
2022-08-26T12:22:15.625Z,6.47
2022-08-26T12:24:50.213Z,5.38
2022-08-26T12:27:29.191Z,8.07
2022-08-26T12:30:13.913Z,4.93
2022-08-26T12:32:58.762Z,4.07
2022-08-26T12:35:29.448Z,9.10
2022-08-26T12:37:57.667Z,4.50
2022-08-26T12:40:35.966Z,6.68
2022-08-26T12:43:07.486Z,6.60
2022-08-26T12:45:43.464Z,10.77
2022-08-26T12:48:29.293Z,7.25
2022-08-26T12:53:29.427Z,9.77
2022-08-26T12:56:05.227Z,5.50
2022-08-26T12:58:33.662Z,6.18
2022-08-26T13:01:07.224Z,5.60
2022-08-26T13:03:34.599Z,6.00
2022-08-26T13:06:23.590Z,4.75
2022-08-26T13:09:17.022Z,4.47
2022-08-26T13:11:45.090Z,7.78
2022-08-26T13:14:21.095Z,6.80
2022-08-26T13:16:51.789Z,8.30
2022-08-26T13:19:21.442Z,7.43
2022-08-26T13:21:50.761Z,12.05
2022-08-26T13:24:22.582Z,8.43
2022-08-26T13:26:50.403Z,5.07
2022-08-26T13:29:18.375Z,6.88
2022-08-26T13:31:46.521Z,8.65
2022-08-26T13:34:19.032Z,10.02
2022-08-26T13:36:47.862Z,6.82
2022-08-26T13:39:14.909Z,4.35
2022-08-26T13:41:43.387Z,6.45
2022-08-26T13:44:11.342Z,10.15
2022-08-26T13:46:38.976Z,3.97
2022-08-26T13:49:07.036Z,5.90
2022-08-26T13:51:34.312Z,6.13
2022-08-26T13:54:01.847Z,8.40
2022-08-26T13:56:29.846Z,4.70
2022-08-26T13:58:58.396Z,6.25
2022-08-26T14:01:26.239Z,6.78
2022-08-26T14:03:53.339Z,10.50
2022-08-26T14:06:21.656Z,7.25
2022-08-26T14:08:48.912Z,6.72
2022-08-26T14:11:16.167Z,6.70
2022-08-26T14:13:43.534Z,5.15
2022-08-26T14:16:16.192Z,6.43
2022-08-26T14:18:47.328Z,9.75
2022-08-26T14:21:17.608Z,10.27
2022-08-26T14:23:44.962Z,6.82
2022-08-26T14:26:27.940Z,12.45
2022-08-26T14:28:58.983Z,8.20
2022-08-26T14:31:27.326Z,9.85
2022-08-26T14:33:57.913Z,5.88
2022-08-26T14:36:33.733Z,8.80
2022-08-26T14:41:54.348Z,5.72
2022-08-26T14:44:27.834Z,7.78
2022-08-26T14:46:55.396Z,7.88
2022-08-26T14:49:24.221Z,7.43
2022-08-26T14:51:51.236Z,5.60
2022-08-26T14:54:19.961Z,9.10
2022-08-26T14:56:58.799Z,4.38
2022-08-26T14:59:27.727Z,6.72
2022-08-26T15:01:55.256Z,7.65
2022-08-26T15:04:23.244Z,5.25
2022-08-26T15:06:52.160Z,7.80
2022-08-26T15:09:19.404Z,8.00
2022-08-26T15:11:47.662Z,6.15
2022-08-26T15:14:19.688Z,15.43
2022-08-26T15:16:52.615Z,14.60
2022-08-26T15:19:20.990Z,17.15
2022-08-26T15:21:48.781Z,8.73
2022-08-26T15:24:19.355Z,7.18
2022-08-26T15:26:46.996Z,14.77
2022-08-26T15:29:14.781Z,11.90
2022-08-26T15:31:42.147Z,9.95
2022-08-26T15:34:16.045Z,12.80
2022-08-26T15:36:45.996Z,9.90
2022-08-26T15:39:14.101Z,6.40
2022-08-26T15:41:42.780Z,7.03
2022-08-26T15:44:11.424Z,8.48
2022-08-26T15:46:39.371Z,9.27
2022-08-26T15:49:07.500Z,9.70
2022-08-26T15:51:45.615Z,8.10
2022-08-26T15:54:14.331Z,15.90
2022-08-26T15:56:42.601Z,8.23
2022-08-26T15:59:11.842Z,8.70
2022-08-26T16:01:39.655Z,6.85
2022-08-26T16:04:07.644Z,8.90
2022-08-26T16:06:37.669Z,8.95
2022-08-26T16:09:06.006Z,12.02
2022-08-26T16:11:34.448Z,6.78
2022-08-26T16:14:02.151Z,9.60
2022-08-26T16:16:29.669Z,10.15
2022-08-26T16:18:57.075Z,8.88
2022-08-26T16:21:29.945Z,14.15
2022-08-26T16:23:58.162Z,13.32
2022-08-26T16:26:29.165Z,20.38
2022-08-26T16:28:56.550Z,17.15
2022-08-26T16:31:23.674Z,13.43
2022-08-26T16:33:51.551Z,8.18
2022-08-26T16:36:18.792Z,7.13
2022-08-26T16:38:53.578Z,8.98
2022-08-26T16:41:21.649Z,7.05
2022-08-26T16:43:48.850Z,8.88
2022-08-26T16:46:16.389Z,6.57
2022-08-26T16:48:44.803Z,10.82
2022-08-26T16:51:23.217Z,12.43
2022-08-26T16:53:51.774Z,6.13
2022-08-26T16:56:21.747Z,11.20
2022-08-26T16:58:49.365Z,11.43
2022-08-26T17:01:18.263Z,11.90
2022-08-26T17:03:45.355Z,9.82
2022-08-26T17:06:12.424Z,8.13
2022-08-26T17:08:41.280Z,9.93
2022-08-26T17:11:09.142Z,9.35
2022-08-26T17:13:39.344Z,14.82
2022-08-26T17:16:09.435Z,11.27
2022-08-26T17:18:37.189Z,13.85
2022-08-26T17:21:08.445Z,10.63
2022-08-26T17:23:37.113Z,11.43
2022-08-26T17:26:05.454Z,11.13
2022-08-26T17:28:32.953Z,10.15
2022-08-26T17:31:01.279Z,12.20
2022-08-26T17:33:29.378Z,10.93
2022-08-26T17:35:56.665Z,9.65
2022-08-26T17:38:24.534Z,12.48
2022-08-26T17:40:52.126Z,16.13
2022-08-26T17:43:19.659Z,11.23
2022-08-26T17:45:46.993Z,10.15
2022-08-26T17:48:14.871Z,12.00
2022-08-26T17:50:43.522Z,10.45
2022-08-26T17:53:18.712Z,13.70
2022-08-26T17:55:47.961Z,11.38
2022-08-26T17:58:17.477Z,8.52
2022-08-26T18:00:52.424Z,9.18
2022-08-26T18:03:20.082Z,12.27
2022-08-26T18:05:52.864Z,13.23
2022-08-26T18:08:20.501Z,14.60
2022-08-26T18:10:47.963Z,8.35
2022-08-26T18:13:15.413Z,7.53
2022-08-26T18:15:45.369Z,11.00
2022-08-26T18:18:14.105Z,9.88
2022-08-26T18:20:43.433Z,11.88
2022-08-26T18:23:11.466Z,6.50
2022-08-26T18:25:41.313Z,8.95
2022-08-26T18:28:08.670Z,9.45
2022-08-26T18:30:36.115Z,7.70
2022-08-26T18:33:03.248Z,12.38
2022-08-26T18:35:31.062Z,9.60
2022-08-26T18:37:58.355Z,10.98
2022-08-26T18:40:40.254Z,8.45
2022-08-26T18:43:07.405Z,9.93
2022-08-26T18:45:34.846Z,7.25
2022-08-26T18:48:03.478Z,7.68
2022-08-26T18:50:30.891Z,11.45
2022-08-26T18:52:58.062Z,12.55
2022-08-26T18:55:25.497Z,9.50
2022-08-26T18:57:52.611Z,21.77
2022-08-26T19:00:20.229Z,14.55
2022-08-26T19:02:52.045Z,12.40
2022-08-26T19:05:22.829Z,11.57
2022-08-26T19:07:49.763Z,13.20
2022-08-26T19:10:16.867Z,15.50
2022-08-26T19:12:43.956Z,12.38
2022-08-26T19:15:11.321Z,13.07
2022-08-26T19:17:38.270Z,12.30
2022-08-26T19:20:06.030Z,16.15
2022-08-26T19:22:33.280Z,15.98
2022-08-26T19:25:01.449Z,22.45
2022-08-26T19:27:28.435Z,19.48
2022-08-26T19:29:57.430Z,27.20
2022-08-26T19:32:25.530Z,19.70
2022-08-26T19:34:53.097Z,25.45
2022-08-26T19:37:20.594Z,19.13
2022-08-26T19:39:48.059Z,12.18
2022-08-26T19:42:15.008Z,15.38
2022-08-26T19:45:24.405Z,12.68
2022-08-26T19:47:53.177Z,13.20
2022-08-26T19:50:21.650Z,15.27
2022-08-26T19:52:48.989Z,14.15
2022-08-26T19:55:20.341Z,12.27
2022-08-26T19:57:47.495Z,10.38
2022-08-26T20:00:19.772Z,12.73
2022-08-26T20:02:47.444Z,14.30
2022-08-26T20:05:15.920Z,17.80
2022-08-26T20:07:43.722Z,18.38
2022-08-26T20:10:13.666Z,15.98
2022-08-26T20:12:42.086Z,16.95
2022-08-26T20:15:11.626Z,14.55
2022-08-26T20:17:39.323Z,19.73
2022-08-26T20:20:33.413Z,17.55
2022-08-26T20:23:03.715Z,14.63
2022-08-26T20:25:32.743Z,12.70
2022-08-26T20:28:00.584Z,14.18
2022-08-26T20:30:27.726Z,13.93
2022-08-26T20:32:54.863Z,12.93
2022-08-26T20:35:22.005Z,13.93
2022-08-26T20:37:49.093Z,11.40
2022-08-26T20:40:16.407Z,15.38
2022-08-26T20:42:43.602Z,14.95
2022-08-26T20:45:11.091Z,18.27
2022-08-26T20:47:38.276Z,12.27
2022-08-26T20:50:06.135Z,12.38
2022-08-26T20:52:33.188Z,13.57
2022-08-26T20:55:00.290Z,17.38
2022-08-26T20:57:27.226Z,10.60
2022-08-26T20:59:54.226Z,16.85
2022-08-26T21:02:21.816Z,15.45
2022-08-26T21:04:48.840Z,16.75
2022-08-26T21:07:16.803Z,13.90
2022-08-26T21:09:44.707Z,13.65
2022-08-26T21:12:12.953Z,14.73
2022-08-26T21:14:40.228Z,16.98
2022-08-26T21:17:07.197Z,12.73
2022-08-26T21:19:34.221Z,17.38
2022-08-26T21:22:01.255Z,18.98
2022-08-26T21:24:28.507Z,14.95
2022-08-26T21:26:55.491Z,18.10
2022-08-26T21:29:22.702Z,14.13
2022-08-26T21:31:50.127Z,12.95
2022-08-26T21:34:18.973Z,10.65
2022-08-26T21:36:47.617Z,15.88
2022-08-26T21:39:15.658Z,14.10
2022-08-26T21:41:43.806Z,10.20
2022-08-26T21:44:12.616Z,12.43
2022-08-26T21:46:40.581Z,10.73
2022-08-26T21:49:10.365Z,12.48
2022-08-26T21:51:40.299Z,10.63
2022-08-26T21:54:11.145Z,12.85
2022-08-26T21:56:46.302Z,16.67
2022-08-26T21:59:16.408Z,12.70
2022-08-26T22:01:43.462Z,13.90
2022-08-26T22:04:10.964Z,18.15
2022-08-26T22:06:47.842Z,18.35
2022-08-26T22:09:17.328Z,10.98
2022-08-26T22:11:44.901Z,10.05
2022-08-26T22:14:12.205Z,17.65
2022-08-26T22:16:39.376Z,13.55
2022-08-26T22:19:07.435Z,27.20
2022-08-26T22:21:39.765Z,13.05
2022-08-26T22:24:08.726Z,13.57
2022-08-26T22:26:36.014Z,11.10
2022-08-26T22:29:03.958Z,10.95
2022-08-26T22:31:37.283Z,11.82
2022-08-26T22:34:11.087Z,11.98
2022-08-26T22:36:44.013Z,11.63
2022-08-26T22:39:13.313Z,16.88
2022-08-26T22:41:41.352Z,14.63
2022-08-26T22:44:08.387Z,17.42
2022-08-26T22:46:36.947Z,17.20
2022-08-26T22:49:05.075Z,16.15
2022-08-26T22:51:32.261Z,15.20
2022-08-26T22:53:59.501Z,12.13
2022-08-26T22:56:26.674Z,14.35
2022-08-26T22:58:53.862Z,13.73
2022-08-26T23:01:21.204Z,14.32
2022-08-26T23:03:48.441Z,14.32
2022-08-26T23:06:15.868Z,11.20
2022-08-26T23:08:45.428Z,14.18
2022-08-26T23:11:14.222Z,17.30
2022-08-26T23:13:42.134Z,12.98
2022-08-26T23:16:12.611Z,9.80
2022-08-26T23:18:41.428Z,13.55
2022-08-26T23:21:09.459Z,14.98
2022-08-26T23:23:37.098Z,13.25
2022-08-26T23:26:06.349Z,14.10
2022-08-26T23:28:34.202Z,12.23
2022-08-26T23:31:01.158Z,15.20
2022-08-26T23:33:48.283Z,15.57
2022-08-26T23:36:17.875Z,16.15
2022-08-26T23:38:45.499Z,18.00
2022-08-26T23:41:21.474Z,14.20
2022-08-26T23:43:48.474Z,17.40
2022-08-26T23:46:15.692Z,15.95
2022-08-26T23:48:42.886Z,14.93
2022-08-26T23:51:28.557Z,14.93
2022-08-26T23:53:55.571Z,12.25
2022-08-26T23:56:22.520Z,13.20
2022-08-26T23:58:49.505Z,13.68
